Millis, Massachusetts
Current Conditions -  °F | °C
As of 5:53 AM on Monday 20 Oct 2014 (Local Time) from KOWD Reporting Station
Clear Clear  
Wind Chill: 29°   Ceiling: Unl
Heat Index: 33°   Visibility: 10mi
Dew Point: 27°   Wind: 5mph
Humidity: 78%   Direction: 250°WSW
Pressure: 30.03"   Gusts: NA
Location:  42.17°N, 71.36°W
Report Text: KOWD 200953Z AUTO 25004KT 10SM CLR 01/M03 A3003 RMK AO2 SLP169 T00061028
Loading
Personal Weather Stations






























Interactive Weather Map
Tropical Storm Tracking
New forecast layout! Learn more

10-Day Weather Forecast

Advertisements
Track Severe Weather on mobile